DSTT2: Red River at Denison Dam nr Denison, TX

                                SHEF ID:       DSTT2     Red River at Denison Dam nr Deni
STATION TYPE:

PRECIP STAGE RIV-FLOW BAT-LOAD
in ft cfs volt
Ccp-Rev Ccp-Rev Ccp-Rev Ccp-Rev
(America/Chicago)
04/28 00:00 0.00 7.74 5288 12.70
04/28 01:00 0.00 6.37 1955 12.68
04/28 02:00 0.00 5.69 922 12.67
04/28 03:00 0.00 5.25 464 12.66
04/28 04:00 0.00 5.55 767 12.65
04/28 05:00 0.00 6.82 2858 12.63
04/28 06:00 0.00 7.33 4112 12.63
04/28 07:00 0.00 7.60 4871 12.61
04/28 08:00 0.00 7.54 4695 12.60
04/28 09:00 0.00 6.26 1766 12.68
04/28 10:00 0.00 5.61 831 12.65
04/28 11:00 0.00 5.22 439 12.59
04/28 12:00 0.17 4.92 237 13.32
04/28 13:00 0.00 4.71 136 13.75
04/28 14:00 0.00 4.54 111 13.67
04/28 15:00 0.00 4.43 102 13.72
04/28 16:00 0.00 6.51 2214 13.21
04/28 17:00 0.00 7.13 3588 13.55
04/28 18:00 0.00 7.51 4609 13.67
04/28 19:00 0.00 7.70 5168 13.45
04/28 20:00 0.00 7.79 5440 13.22
04/28 21:00 0.00 7.86 5658 12.88
04/28 22:00 0.00 7.87 5689 12.75
04/28 23:00 0.00 7.87 5689 12.70
Data processed at Wed 29Apr2026 04:11 GMT

NOTICE: If you are parsing this page

Please convert to using our Data API. Starting early 2026 we will be migrating to: https://water.usace.army.mil with modern pages rendered in JavaScript. When this migration completes you will no longer be able to scrape this page! CWMSDataAPI (CDA)

Timeseries IDs (TSIDs)

TSIDs used from left to right in the data table
DEN2.Precip-Inc.Total.1Hour.1Hour.Ccp-Rev
DEN2.Stage.Inst.1Hour.0.Ccp-Rev
DEN2.Flow.Inst.1Hour.0.Ccp-Rev
DEN2.Volt-Battery Load.Inst.1Hour.0.Ccp-Rev

                            

All information presented herein is the property of the government of the United States of America and may be revised or deleted at any time without prior notice. Dissemination of this information without the expressed written consent of the Public Affairs Office, Tulsa District U.S. Army Corps of Engineers is strictly prohibited. These data are gathered electronically and, as presented, have NOT undergone any form of quality control. These data are NOT guaranteed to be valid or correct.